Terminal Aerodrome Forecast
Issued by NWS

Home | Current Version | Previous Version | Text Only | Print | Product List | Glossary On
Versions: 1 2 3 4 5 6 7 8 9 10 11 12 13 14 15 16 17 18 19 20 21 22 23 24 25 26 27 28 29 30 31 32 33 34 35 36 37 38 39 40 41 42 43 44 45 46 47 48 49 50
000
FTUS43 KMKX 290520
TAFUES
TAF
KUES 290520Z 2906/3006 14004KT P6SM BKN200
     FM291000 VRB03KT P6SM VCSH BKN100
     FM291300 18005KT P6SM -SHRA VCTS BKN080CB
     FM291600 19009KT P6SM SHRA VCTS OVC080CB
     FM291800 20011KT P6SM VCSH SCT040 BKN100
     FM292000 19010KT P6SM VCTS BKN050CB
     FM300000 22009KT P6SM SHRA VCTS BKN050CB
     FM300500 24005KT P6SM SHRA VCTS OVC070CB=

USA.gov is the U.S. government's official web portal to all federal, state and local government web resources and services.